Time;durP1;ratioP1;P1;durP2;ratioP2;P2;SDS_P1;SDS_P2;PMS_P1;PMS_P2;Temp;Humidity;BMP_temperature;BMP_pressure;BME280_temperature;BME280_humidity;BME280_pressure;Samples;Min_cycle;Max_cycle;Signal;HPM_P1;HPM_P2
2023/08/25 00:00:13;;;;;;;4.32;2.88;;;;;;;18.76;100.00;95829.56;1026997;28;20035;-75
2023/08/25 00:00:43;;;;;;;5.97;2.60;;;;;;;18.74;100.00;95837.81;1023781;29;20062;-74
2023/08/25 00:01:14;;;;;;;6.32;2.67;;;;;;;18.76;100.00;95845.50;1023993;29;20027;-73
2023/08/25 00:01:44;;;;;;;4.03;2.78;;;;;;;18.78;100.00;95838.00;1020109;29;20039;-79
2023/08/25 00:02:15;;;;;;;5.45;2.63;;;;;;;18.78;100.00;95848.63;1023966;29;20035;-75
2023/08/25 00:02:46;;;;;;;8.90;2.92;;;;;;;18.77;100.00;95847.84;1019507;29;20127;-74
2023/08/25 00:03:16;;;;;;;8.50;3.67;;;;;;;18.78;100.00;95853.97;1015024;29;20028;-76
2023/08/25 00:03:48;;;;;;;5.30;2.92;;;;;;;18.74;100.00;95847.69;1016584;29;20032;-75
2023/08/25 00:04:19;;;;;;;5.22;3.20;;;;;;;18.74;100.00;95843.13;1023127;29;20130;-77
2023/08/25 00:04:49;;;;;;;5.07;2.70;;;;;;;18.70;100.00;95833.41;1022847;29;20086;-75
2023/08/25 00:05:19;;;;;;;7.13;3.22;;;;;;;18.65;100.00;95825.63;1027016;28;20030;-74
2023/08/25 00:05:55;;;;;;;5.47;2.33;;;;;;;18.71;100.00;95834.97;1026952;28;20038;-74
2023/08/25 00:06:26;;;;;;;5.25;2.58;;;;;;;18.71;100.00;95824.34;1023093;29;20519;-73
2023/08/25 00:06:56;;;;;;;5.38;2.30;;;;;;;18.69;100.00;95823.88;1018949;29;20027;-77
2023/08/25 00:07:27;;;;;;;8.55;2.90;;;;;;;18.68;100.00;95831.09;1015089;29;20036;-75
2023/08/25 00:07:57;;;;;;;3.83;2.40;;;;;;;18.63;100.00;95815.28;1019033;29;20032;-75
2023/08/25 00:08:28;;;;;;;2.60;2.10;;;;;;;18.70;100.00;95834.19;1022928;29;20043;-74
2023/08/25 00:08:58;;;;;;;8.00;2.60;;;;;;;18.68;100.00;95827.63;1014782;29;20032;-76
2023/08/25 00:09:28;;;;;;;6.78;2.42;;;;;;;18.66;100.00;95830.59;1019139;29;20535;-75
2023/08/25 00:09:59;;;;;;;5.28;2.22;;;;;;;18.65;100.00;95829.06;1017521;29;20032;-77
2023/08/25 00:10:29;;;;;;;5.20;2.42;;;;;;;18.70;100.00;95836.06;1022774;28;20035;-74
2023/08/25 00:11:00;;;;;;;4.03;2.45;;;;;;;18.73;100.00;95838.16;1015047;29;20487;-74
2023/08/25 00:11:30;;;;;;;4.95;2.22;;;;;;;18.72;100.00;95842.69;1022927;29;20031;-77
2023/08/25 00:12:01;;;;;;;3.50;2.45;;;;;;;18.74;100.00;95834.38;1026856;28;20023;-75
2023/08/25 00:12:31;;;;;;;6.68;2.28;;;;;;;18.72;100.00;95828.63;1022593;29;20030;-75
2023/08/25 00:13:02;;;;;;;4.03;2.30;;;;;;;18.73;100.00;95830.16;1015110;29;20039;-73
2023/08/25 00:13:35;;;;;;;6.22;2.83;;;;;;;18.71;100.00;95824.34;1022238;29;20754;-77
2023/08/25 00:14:05;;;;;;;5.32;2.38;;;;;;;18.70;100.00;95820.13;1015007;29;20071;-75
2023/08/25 00:14:36;;;;;;;2.88;2.40;;;;;;;18.73;100.00;95824.84;1007298;29;20384;-75
2023/08/25 00:15:07;;;;;;;7.45;2.70;;;;;;;18.71;100.00;95827.81;1011038;29;20032;-75
2023/08/25 00:15:39;;;;;;;6.45;2.67;;;;;;;18.72;100.00;95824.06;1010777;29;20039;-73
2023/08/25 00:16:09;;;;;;;6.13;4.00;;;;;;;18.73;100.00;95819.53;1011122;29;20470;-75
2023/08/25 00:16:40;;;;;;;4.22;2.10;;;;;;;18.74;100.00;95826.41;1023023;29;20095;-74
2023/08/25 00:17:10;;;;;;;4.72;2.15;;;;;;;18.75;100.00;95841.28;1022733;28;20019;-74
2023/08/25 00:17:41;;;;;;;3.42;2.30;;;;;;;18.74;100.00;95827.19;1022867;29;20027;-75
2023/08/25 00:18:11;;;;;;;4.00;1.90;;;;;;;18.70;100.00;95826.22;1023078;29;20069;-75
2023/08/25 00:18:42;;;;;;;7.05;3.17;;;;;;;18.72;100.00;95823.28;1015125;29;20033;-74
2023/08/25 00:19:14;;;;;;;6.25;2.40;;;;;;;18.74;100.00;95832.50;1014988;29;20024;-73
2023/08/25 00:19:44;;;;;;;3.63;2.05;;;;;;;18.74;100.00;95821.88;1022869;29;20020;-75
2023/08/25 00:20:15;;;;;;;4.07;2.20;;;;;;;18.69;100.00;95808.72;1022942;29;20583;-78
2023/08/25 00:20:45;;;;;;;3.83;2.30;;;;;;;18.73;100.00;95827.50;1022906;28;20046;-74
2023/08/25 00:21:15;;;;;;;8.55;2.38;;;;;;;18.71;100.00;95822.50;1018774;29;20026;-74
2023/08/25 00:21:46;;;;;;;3.40;2.40;;;;;;;18.72;100.00;95831.28;1022923;29;20019;-73
2023/08/25 00:22:16;;;;;;;3.85;2.58;;;;;;;18.67;100.00;95820.75;1018981;29;20393;-74
2023/08/25 00:22:47;;;;;;;4.10;2.10;;;;;;;18.70;100.00;95842.19;1011174;29;20017;-77
2023/08/25 00:23:17;;;;;;;6.68;2.90;;;;;;;18.68;100.00;95825.78;1010687;29;20093;-73
2023/08/25 00:23:48;;;;;;;5.82;2.55;;;;;;;18.72;100.00;95839.25;1018849;29;20035;-73
2023/08/25 00:24:18;;;;;;;8.07;2.35;;;;;;;18.71;100.00;95840.28;1021619;28;20023;-73
2023/08/25 00:24:55;;;;;;;6.55;2.72;;;;;;;18.65;100.00;95836.25;1022992;29;20023;-75
2023/08/25 00:25:25;;;;;;;4.63;2.20;;;;;;;18.68;100.00;95840.91;1018049;29;20029;-74
2023/08/25 00:25:56;;;;;;;3.47;2.08;;;;;;;18.72;100.00;95833.94;1012961;29;20519;-74
2023/08/25 00:26:26;;;;;;;3.50;2.25;;;;;;;18.73;100.00;95838.94;1018930;29;20019;-74
2023/08/25 00:26:57;;;;;;;5.15;1.80;;;;;;;18.74;100.00;95829.06;1018995;29;20051;-74
2023/08/25 00:27:27;;;;;;;4.53;2.95;;;;;;;18.71;100.00;95821.69;1011765;29;20020;-75
2023/08/25 00:27:58;;;;;;;4.32;1.90;;;;;;;18.74;100.00;95826.41;1014929;29;20036;-76
2023/08/25 00:28:28;;;;;;;6.82;2.58;;;;;;;18.76;100.00;95829.56;1022936;29;20078;-74
2023/08/25 00:28:58;;;;;;;4.15;1.90;;;;;;;18.76;100.00;95827.66;1026855;28;20031;-76
2023/08/25 00:29:29;;;;;;;3.75;2.30;;;;;;;18.77;100.00;95826.56;1026139;28;20022;-76
2023/08/25 00:29:59;;;;;;;5.70;2.58;;;;;;;18.76;100.00;95829.56;1026708;28;20022;-75
2023/08/25 00:30:30;;;;;;;6.60;2.40;;;;;;;18.74;100.00;95821.09;1018856;29;20032;-73
2023/08/25 00:31:00;;;;;;;2.85;1.88;;;;;;;18.75;100.00;95822.69;1015758;29;20578;-75
2023/08/25 00:31:31;;;;;;;3.72;1.52;;;;;;;18.75;100.00;95817.34;1022857;29;20015;-73
2023/08/25 00:32:02;;;;;;;4.70;2.08;;;;;;;18.74;100.00;95813.13;1018913;29;20680;-75
2023/08/25 00:32:33;;;;;;;4.45;1.85;;;;;;;18.72;100.00;95810.00;1014996;29;20425;-72
2023/08/25 00:33:03;;;;;;;3.15;2.60;;;;;;;18.75;100.00;95817.34;1018889;29;20027;-74
2023/08/25 00:33:34;;;;;;;3.00;2.03;;;;;;;18.70;100.00;95809.50;1022329;29;20420;-72
2023/08/25 00:34:05;;;;;;;7.25;1.90;;;;;;;18.75;100.00;95814.69;1026915;28;20392;-74
2023/08/25 00:34:35;;;;;;;3.75;2.30;;;;;;;18.72;100.00;95823.28;1022866;29;20015;-75
2023/08/25 00:35:06;;;;;;;4.88;1.80;;;;;;;18.68;100.00;95807.16;1026709;28;20103;-75
2023/08/25 00:35:36;;;;;;;3.60;2.05;;;;;;;18.72;100.00;95807.34;1018966;29;20493;-74
2023/08/25 00:36:07;;;;;;;5.15;1.80;;;;;;;18.73;100.00;95801.72;1007097;29;20025;-73
2023/08/25 00:36:37;;;;;;;5.40;1.98;;;;;;;18.70;100.00;95804.97;1015092;29;20036;-76
2023/08/25 00:37:08;;;;;;;2.97;2.17;;;;;;;18.72;100.00;95807.34;1018935;29;20020;-74
2023/08/25 00:37:38;;;;;;;3.05;1.90;;;;;;;18.66;100.00;95792.63;1018865;29;20040;-74
2023/08/25 00:38:08;;;;;;;7.28;2.00;;;;;;;18.70;100.00;95802.31;1019036;29;20035;-74
2023/08/25 00:38:39;;;;;;;2.40;1.75;;;;;;;18.72;100.00;95799.38;1027001;28;20031;-74
2023/08/25 00:39:10;;;;;;;5.45;2.70;;;;;;;18.72;100.00;95802.81;1026896;28;20027;-75
2023/08/25 00:39:40;;;;;;;3.42;2.38;;;;;;;18.69;100.00;95792.78;1011782;29;20036;-75
2023/08/25 00:40:11;;;;;;;3.28;1.98;;;;;;;18.68;100.00;95801.03;1014953;29;20157;-74
2023/08/25 00:40:41;;;;;;;2.38;1.75;;;;;;;18.59;100.00;95787.75;1023009;29;20038;-75
2023/08/25 00:41:12;;;;;;;2.53;1.65;;;;;;;18.66;100.00;95795.28;1026831;28;20030;-75
2023/08/25 00:41:42;;;;;;;4.07;1.92;;;;;;;18.67;100.00;95794.16;1022971;29;20031;-73
2023/08/25 00:42:12;;;;;;;3.97;1.70;;;;;;;18.68;100.00;95801.03;1022867;29;20034;-73
2023/08/25 00:42:43;;;;;;;3.22;2.17;;;;;;;18.68;100.00;95804.50;1023010;29;20098;-73
2023/08/25 00:43:13;;;;;;;4.70;1.83;;;;;;;18.69;100.00;95806.06;1018419;29;20541;-74
2023/08/25 00:43:44;;;;;;;2.65;1.90;;;;;;;18.66;100.00;95804.03;1022818;29;20046;-75
2023/08/25 00:44:14;;;;;;;8.07;2.20;;;;;;;18.56;100.00;95789.16;1018957;29;20036;-74
2023/08/25 00:44:45;;;;;;;3.05;1.75;;;;;;;18.67;100.00;95799.50;1018936;29;20409;-74
2023/08/25 00:45:15;;;;;;;3.75;2.28;;;;;;;18.68;100.00;95807.16;1022943;28;20039;-73
2023/08/25 00:45:46;;;;;;;6.70;1.90;;;;;;;18.70;100.00;95806.84;1027025;28;20035;-77
2023/08/25 00:46:16;;;;;;;3.63;1.70;;;;;;;18.65;100.00;95793.72;1022950;29;20464;-73
2023/08/25 00:46:47;;;;;;;3.67;1.80;;;;;;;18.70;100.00;95810.28;1018787;29;20062;-74
2023/08/25 00:47:18;;;;;;;2.17;1.80;;;;;;;18.57;100.00;95779.31;1015105;29;20036;-74
2023/08/25 00:47:49;;;;;;;2.97;1.77;;;;;;;18.69;100.00;95799.97;1015058;29;20033;-74
2023/08/25 00:48:19;;;;;;;6.20;2.28;;;;;;;18.64;100.00;95800.88;1018890;29;20103;-74
2023/08/25 00:48:50;;;;;;;2.55;1.98;;;;;;;18.69;100.00;95810.59;1019000;29;20039;-73
2023/08/25 00:49:21;;;;;;;3.75;1.90;;;;;;;18.66;100.00;95804.03;1015101;29;20036;-77
2023/08/25 00:49:51;;;;;;;1.80;1.70;;;;;;;18.70;100.00;95812.94;1023182;29;20055;-73
2023/08/25 00:50:22;;;;;;;3.20;2.05;;;;;;;18.70;100.00;95806.84;1025879;28;20019;-74
2023/08/25 00:50:53;;;;;;;3.28;1.75;;;;;;;18.65;100.00;95791.06;1027009;28;20038;-73
2023/08/25 00:51:24;;;;;;;3.47;2.42;;;;;;;18.66;100.00;95796.06;1022864;29;20481;-74
2023/08/25 00:51:54;;;;;;;4.78;2.40;;;;;;;18.70;100.00;95798.88;1018515;29;20032;-74
2023/08/25 00:52:25;;;;;;;4.97;2.40;;;;;;;18.68;100.00;95793.88;1022737;29;20031;-74
2023/08/25 00:52:55;;;;;;;3.20;1.90;;;;;;;18.70;100.00;95798.88;1022674;29;20034;-73
2023/08/25 00:53:26;;;;;;;2.92;1.67;;;;;;;18.72;100.00;95802.03;1022065;29;20105;-73
2023/08/25 00:53:56;;;;;;;3.80;1.80;;;;;;;18.67;100.00;95797.59;1014995;29;20096;-73
2023/08/25 00:54:27;;;;;;;2.03;1.55;;;;;;;18.66;100.00;95788.06;1007179;29;20052;-75
2023/08/25 00:54:57;;;;;;;4.13;2.03;;;;;;;18.69;100.00;95794.66;1011694;29;20118;-74
2023/08/25 00:55:28;;;;;;;2.90;1.98;;;;;;;18.70;100.00;95798.88;1025946;28;20411;-75
2023/08/25 00:55:58;;;;;;;3.85;1.70;;;;;;;18.65;100.00;95796.38;1025986;28;20030;-74
2023/08/25 00:56:29;;;;;;;2.80;1.65;;;;;;;18.61;100.00;95785.56;1022746;29;20382;-72
2023/08/25 00:56:59;;;;;;;3.20;1.55;;;;;;;18.67;100.00;95794.94;1018756;29;20073;-74
2023/08/25 00:57:31;;;;;;;5.43;1.50;;;;;;;18.71;100.00;95800.41;1014994;29;20028;-78
2023/08/25 00:58:05;;;;;;;2.78;1.67;;;;;;;18.72;100.00;95794.06;1011179;29;20030;-72
2023/08/25 00:58:36;;;;;;;3.15;2.08;;;;;;;18.74;100.00;95791.84;1010946;29;20563;-74
2023/08/25 00:59:06;;;;;;;4.78;1.60;;;;;;;18.75;100.00;95796.88;1022851;29;20019;-76
2023/08/25 00:59:36;;;;;;;5.00;1.90;;;;;;;18.76;100.00;95797.66;1018802;29;20485;-74
2023/08/25 01:00:09;;;;;;;3.47;1.50;;;;;;;18.70;100.00;95790.88;1022838;29;20024;-73
2023/08/25 01:00:40;;;;;;;2.67;1.67;;;;;;;18.72;100.00;95792.19;1018708;29;20039;-74
2023/08/25 01:01:11;;;;;;;1.63;1.50;;;;;;;18.73;100.00;95790.28;1011151;29;20020;-74
2023/08/25 01:01:45;;;;;;;2.75;1.58;;;;;;;18.71;100.00;95785.28;1011074;29;20072;-74
2023/08/25 01:02:16;;;;;;;2.25;1.60;;;;;;;18.78;100.00;95796.25;1007259;29;20052;-74
2023/08/25 01:02:46;;;;;;;4.38;1.70;;;;;;;18.76;100.00;95784.34;1011224;29;20033;-73
2023/08/25 01:03:17;;;;;;;2.50;1.45;;;;;;;18.84;100.00;95789.66;1026206;28;20034;-73
2023/08/25 01:03:48;;;;;;;3.80;1.50;;;;;;;18.81;100.00;95786.84;1026564;28;20031;-73
2023/08/25 01:04:18;;;;;;;3.28;1.75;;;;;;;18.87;100.00;95782.94;1022808;29;20019;-75
2023/08/25 01:04:49;;;;;;;1.83;1.40;;;;;;;18.90;100.00;95787.63;1014955;29;20035;-74
2023/08/25 01:05:19;;;;;;;2.83;1.40;;;;;;;18.94;100.00;95788.56;1018601;29;20028;-73
2023/08/25 01:05:50;;;;;;;3.25;1.17;;;;;;;18.97;100.00;95781.84;1022721;29;20062;-74
2023/08/25 01:06:21;;;;;;;4.53;1.77;;;;;;;18.99;100.00;95787.63;1019176;29;20493;-74
2023/08/25 01:06:51;;;;;;;2.85;1.50;;;;;;;19.01;100.00;95774.78;1022690;29;20024;-73
2023/08/25 01:07:22;;;;;;;1.58;1.27;;;;;;;18.98;100.00;95773.56;1018429;29;20588;-74
2023/08/25 01:07:52;;;;;;;4.05;2.28;;;;;;;19.01;100.00;95770.25;1015014;29;20028;-75
2023/08/25 01:08:24;;;;;;;4.05;1.30;;;;;;;19.03;100.00;95769.94;1026971;28;20037;-74
2023/08/25 01:08:54;;;;;;;3.85;2.08;;;;;;;19.08;100.00;95777.78;1018736;29;20020;-74
2023/08/25 01:09:25;;;;;;;3.55;1.48;;;;;;;19.05;100.00;95768.53;1010962;29;20402;-75
2023/08/25 01:09:56;;;;;;;4.93;1.40;;;;;;;19.00;100.00;95766.03;1014082;29;20118;-72
2023/08/25 01:10:31;;;;;;;4.72;1.50;;;;;;;19.03;100.00;95757.41;1018770;29;20020;-74
2023/08/25 01:11:10;;;;;;;4.72;1.55;;;;;;;19.13;100.00;95764.28;1018815;29;20096;-72
2023/08/25 01:12:00;;;;;;;2.92;1.50;;;;;;;19.14;100.00;95765.06;1024924;28;20065;-74
2023/08/25 01:12:55;;;;;;;2.63;2.13;;;;;;;19.17;100.00;95753.78;1022645;28;20049;-74
2023/08/25 01:13:58;;;;;;;2.15;1.33;;;;;;;19.14;100.00;95755.19;1019549;29;20034;-73
2023/08/25 01:14:40;;;;;;;4.88;1.92;;;;;;;19.14;100.00;95759.75;1026357;28;20022;-73
2023/08/25 01:15:12;;;;;;;3.80;1.40;;;;;;;19.15;100.00;95750.66;1018883;29;20461;-74
2023/08/25 01:15:43;;;;;;;3.65;1.63;;;;;;;19.17;100.00;95754.56;1014515;29;20031;-73
2023/08/25 01:16:16;;;;;;;1.85;1.25;;;;;;;19.17;100.00;95749.25;1010806;29;20477;-74
2023/08/25 01:16:57;;;;;;;3.42;1.92;;;;;;;19.19;100.00;95747.06;1022709;29;20054;-74
2023/08/25 01:17:42;;;;;;;4.15;1.38;;;;;;;19.18;100.00;95742.03;1026514;28;20030;-73
2023/08/25 01:18:16;;;;;;;2.63;1.23;;;;;;;19.19;100.00;95743.63;1018758;29;20047;-74
2023/08/25 01:18:46;;;;;;;2.63;1.40;;;;;;;19.25;100.00;95748.47;1018722;29;20631;-73
2023/08/25 01:19:47;;;;;;;1.83;1.38;;;;;;;19.26;100.00;95746.56;1014527;29;20071;-73
2023/08/25 01:20:17;;;;;;;1.80;1.10;;;;;;;19.24;100.00;95738.13;1014835;29;20745;-73
2023/08/25 01:20:48;;;;;;;1.52;1.00;;;;;;;19.31;100.00;95749.06;1010602;29;20097;-77
2023/08/25 01:21:18;;;;;;;3.10;1.17;;;;;;;19.31;100.00;95743.72;1007222;29;20408;-74
2023/08/25 01:21:49;;;;;;;2.25;1.60;;;;;;;19.34;100.00;95739.66;1010897;29;20088;-73
2023/08/25 01:22:25;;;;;;;2.50;1.40;;;;;;;19.31;100.00;95744.53;1013937;29;20105;-72
2023/08/25 01:23:23;;;;;;;2.53;1.55;;;;;;;19.33;100.00;95748.75;1019403;29;20517;-73
2023/08/25 01:23:58;;;;;;;2.22;1.40;;;;;;;19.33;100.00;95748.75;1022989;28;20115;-74
2023/08/25 01:24:28;;;;;;;5.20;1.75;;;;;;;19.35;100.00;95749.19;1018445;29;20028;-72
2023/08/25 01:25:20;;;;;;;2.42;1.33;;;;;;;19.34;100.00;95739.66;1010974;29;20029;-73
2023/08/25 01:25:51;;;;;;;2.42;1.55;;;;;;;19.33;100.00;95746.88;1022624;29;20657;-75
2023/08/25 01:26:23;;;;;;;3.08;1.50;;;;;;;19.35;100.00;95750.00;1022578;29;20098;-74
2023/08/25 01:26:53;;;;;;;2.28;1.38;;;;;;;19.27;100.00;95732.94;1018808;29;20038;-72
2023/08/25 01:27:27;;;;;;;2.03;1.70;;;;;;;19.29;100.00;95736.06;1018939;29;20024;-71
2023/08/25 01:27:58;;;;;;;4.38;1.48;;;;;;;19.24;100.00;95733.56;1019194;29;20039;-74
2023/08/25 01:28:29;;;;;;;3.78;1.55;;;;;;;19.30;100.00;95734.97;1014927;29;20528;-73
2023/08/25 01:28:59;;;;;;;2.40;1.40;;;;;;;19.31;100.00;95741.06;1019464;29;20047;-73
2023/08/25 01:29:30;;;;;;;2.90;1.30;;;;;;;19.26;100.00;95734.06;1015098;29;20256;-72
2023/08/25 01:30:00;;;;;;;3.15;2.60;;;;;;;19.27;100.00;95737.50;1018763;29;20035;-74
2023/08/25 01:30:32;;;;;;;2.78;1.40;;;;;;;19.29;100.00;95740.63;1018694;29;20076;-74
2023/08/25 01:31:04;;;;;;;3.90;1.30;;;;;;;19.28;100.00;95739.03;1018669;29;20032;-72
2023/08/25 01:31:34;;;;;;;3.22;1.70;;;;;;;19.32;100.00;95737.34;1019210;29;20039;-73
2023/08/25 01:32:06;;;;;;;4.10;1.38;;;;;;;19.26;100.00;95722.63;1022729;29;20034;-74
2023/08/25 01:32:37;;;;;;;3.78;1.38;;;;;;;19.26;100.00;95731.38;1018476;29;20039;-73
2023/08/25 01:33:07;;;;;;;2.80;1.48;;;;;;;19.26;100.00;95730.63;1022688;29;20031;-75
2023/08/25 01:33:39;;;;;;;4.85;1.70;;;;;;;19.31;100.00;95736.56;1014246;29;20047;-72
2023/08/25 01:34:09;;;;;;;3.75;1.40;;;;;;;19.31;100.00;95733.09;1014875;29;20062;-73
2023/08/25 01:34:40;;;;;;;3.80;1.58;;;;;;;19.28;100.00;95731.06;1014605;29;20441;-73
2023/08/25 01:35:14;;;;;;;3.17;1.38;;;;;;;19.29;100.00;95724.66;1010991;29;20051;-73
2023/08/25 01:35:57;;;;;;;3.50;1.50;;;;;;;19.24;100.00;95727.47;1003273;29;20105;-73
2023/08/25 01:36:35;;;;;;;2.80;1.73;;;;;;;19.20;100.00;95715.91;1010790;29;20111;-74
2023/08/25 01:37:17;;;;;;;2.47;1.55;;;;;;;19.22;100.00;95719.81;1018569;29;20027;-73
2023/08/25 01:38:04;;;;;;;1.60;1.35;;;;;;;19.20;100.00;95718.56;1014671;29;20528;-73
2023/08/25 01:38:51;;;;;;;2.55;1.63;;;;;;;19.25;100.00;95718.41;1022602;29;20540;-72
2023/08/25 01:39:21;;;;;;;2.80;1.25;;;;;;;19.19;100.00;95709.03;1018816;29;20133;-72
2023/08/25 01:39:53;;;;;;;5.03;1.60;;;;;;;19.15;100.00;95705.44;1018661;29;20149;-73
2023/08/25 01:40:27;;;;;;;2.67;1.40;;;;;;;19.17;100.00;95712.00;1018732;29;20038;-73
2023/08/25 01:41:10;;;;;;;6.35;3.15;;;;;;;19.16;100.00;95713.13;1022508;29;20027;-73
2023/08/25 01:41:47;;;;;;;3.45;1.45;;;;;;;19.11;100.00;95710.59;1020329;29;20036;-72
2023/08/25 01:42:17;;;;;;;4.57;1.83;;;;;;;19.11;100.00;95715.16;1022674;29;20031;-73
2023/08/25 01:42:48;;;;;;;2.22;1.40;;;;;;;19.02;100.00;95696.56;1018607;29;20482;-74
2023/08/25 01:43:21;;;;;;;3.83;1.08;;;;;;;19.10;100.00;95716.25;1012849;29;20031;-73
2023/08/25 01:43:52;;;;;;;4.30;1.63;;;;;;;19.06;100.00;95718.78;1018582;29;20122;-74
2023/08/25 01:44:23;;;;;;;2.53;1.40;;;;;;;19.05;100.00;95719.88;1014729;29;20028;-72
2023/08/25 01:44:56;;;;;;;1.83;1.45;;;;;;;19.10;100.00;95726.91;1015351;29;20557;-74
2023/08/25 01:45:27;;;;;;;2.22;1.30;;;;;;;19.12;100.00;95724.72;1018773;29;20028;-72
2023/08/25 01:45:57;;;;;;;2.05;1.20;;;;;;;19.11;100.00;95723.13;1011009;29;20529;-72
2023/08/25 01:46:28;;;;;;;3.60;1.25;;;;;;;19.07;100.00;95713.13;1018625;29;20117;-75
2023/08/25 01:47:00;;;;;;;4.43;1.60;;;;;;;19.12;100.00;95719.41;1022517;28;20023;-73
2023/08/25 01:47:30;;;;;;;2.70;1.40;;;;;;;19.05;100.00;95710.03;1014840;29;20047;-74
2023/08/25 01:48:01;;;;;;;2.40;1.52;;;;;;;19.11;100.00;95712.50;1014897;29;20059;-74
2023/08/25 01:48:31;;;;;;;3.17;1.48;;;;;;;19.13;100.00;95711.09;1020815;29;20031;-73
2023/08/25 01:49:02;;;;;;;5.35;1.67;;;;;;;19.08;100.00;95704.06;1026609;28;20032;-72
2023/08/25 01:49:32;;;;;;;3.30;1.50;;;;;;;19.10;100.00;95714.38;1018685;29;20034;-74
2023/08/25 01:50:03;;;;;;;2.83;1.60;;;;;;;19.13;100.00;95715.63;1014675;29;20032;-73
2023/08/25 01:50:34;;;;;;;1.95;1.42;;;;;;;19.12;100.00;95720.16;1018735;29;20102;-73
2023/08/25 01:51:07;;;;;;;2.35;1.33;;;;;;;19.12;100.00;95714.06;1018620;29;20141;-74
2023/08/25 01:51:38;;;;;;;4.28;1.95;;;;;;;19.13;100.00;95715.63;1019207;29;20698;-73
2023/08/25 01:52:09;;;;;;;1.95;1.40;;;;;;;19.13;100.00;95715.63;1021352;29;20031;-75
2023/08/25 01:52:40;;;;;;;3.10;1.40;;;;;;;19.13;100.00;95712.97;1017678;29;20027;-74
2023/08/25 01:53:11;;;;;;;2.58;1.38;;;;;;;19.11;100.00;95717.81;1020390;29;20032;-72
2023/08/25 01:53:44;;;;;;;4.85;1.40;;;;;;;19.07;100.00;95707.03;1018644;29;20035;-75
2023/08/25 01:54:14;;;;;;;3.25;1.50;;;;;;;19.06;100.00;95716.91;1014667;29;20084;-73
2023/08/25 01:54:45;;;;;;;2.92;1.65;;;;;;;19.08;100.00;95719.25;1018812;29;20521;-72
2023/08/25 01:55:16;;;;;;;2.60;1.52;;;;;;;19.08;100.00;95720.03;1022244;28;20031;-72
2023/08/25 01:55:46;;;;;;;2.63;1.60;;;;;;;19.07;100.00;95723.75;1022847;28;20027;-74
2023/08/25 01:56:17;;;;;;;4.75;1.30;;;;;;;19.05;100.00;95719.88;1018519;29;20414;-74
2023/08/25 01:56:47;;;;;;;3.72;1.67;;;;;;;19.07;100.00;95723.00;1022549;28;20110;-73
2023/08/25 01:57:18;;;;;;;1.98;1.50;;;;;;;19.03;100.00;95709.53;1021771;29;20039;-73
2023/08/25 01:57:48;;;;;;;2.15;1.50;;;;;;;19.02;100.00;95715.97;1018868;29;20440;-74
2023/08/25 01:58:18;;;;;;;2.67;1.55;;;;;;;19.00;100.00;95717.38;1017480;29;20091;-73
2023/08/25 01:58:49;;;;;;;3.10;1.50;;;;;;;19.04;100.00;95724.41;1023569;28;20027;-72
2023/08/25 01:59:20;;;;;;;4.88;1.83;;;;;;;19.02;100.00;95720.50;1018610;29;20115;-73
2023/08/25 01:59:50;;;;;;;3.67;1.42;;;;;;;19.05;100.00;95725.97;1018708;29;20086;-72
2023/08/25 02:00:20;;;;;;;3.40;2.22;;;;;;;19.02;100.00;95720.50;1022512;29;20648;-74
2023/08/25 02:00:51;;;;;;;4.80;1.48;;;;;;;19.05;100.00;95720.66;1018702;29;20457;-73
2023/08/25 02:01:22;;;;;;;5.57;1.45;;;;;;;19.05;100.00;95719.88;1014694;29;20051;-73
2023/08/25 02:01:52;;;;;;;4.07;1.73;;;;;;;18.99;100.00;95727.25;1014954;29;20047;-72
2023/08/25 02:02:22;;;;;;;2.50;1.42;;;;;;;19.00;100.00;95726.13;1022672;29;20031;-73
2023/08/25 02:02:53;;;;;;;2.42;1.27;;;;;;;18.94;100.00;95714.09;1018774;29;20154;-73
2023/08/25 02:03:23;;;;;;;3.83;1.80;;;;;;;18.94;100.00;95716.75;1021820;29;20027;-72
2023/08/25 02:03:54;;;;;;;1.85;1.10;;;;;;;18.98;100.00;95720.38;1019691;29;20031;-73
2023/08/25 02:04:24;;;;;;;2.58;1.52;;;;;;;18.98;100.00;95720.38;1018767;29;20040;-75
2023/08/25 02:04:55;;;;;;;2.58;1.58;;;;;;;18.96;100.00;95717.22;1018788;29;20071;-75
2023/08/25 02:05:25;;;;;;;3.38;1.55;;;;;;;19.00;100.00;95722.69;1022392;29;20027;-73
2023/08/25 02:05:56;;;;;;;4.32;1.90;;;;;;;18.99;100.00;95716.59;1026473;28;20042;-73
2023/08/25 02:06:26;;;;;;;3.13;1.50;;;;;;;19.00;100.00;95720.81;1022577;29;20759;-73
2023/08/25 02:06:57;;;;;;;2.72;1.80;;;;;;;18.99;100.00;95711.28;1026471;28;20063;-73
2023/08/25 02:07:27;;;;;;;3.58;1.45;;;;;;;19.02;100.00;95715.97;1026411;28;20038;-74
2023/08/25 02:07:57;;;;;;;1.42;1.30;;;;;;;19.04;100.00;95721.72;1026345;28;20026;-73
2023/08/25 02:08:28;;;;;;;4.18;2.40;;;;;;;19.00;100.00;95707.50;1018465;29;20087;-73
2023/08/25 02:08:58;;;;;;;1.60;1.20;;;;;;;19.00;100.00;95709.41;1022289;29;20460;-74
2023/08/25 02:09:29;;;;;;;1.77;1.55;;;;;;;19.03;100.00;95716.75;1018623;29;20059;-73
2023/08/25 02:09:59;;;;;;;2.22;1.50;;;;;;;19.02;100.00;95709.88;1016675;29;20032;-72
2023/08/25 02:10:30;;;;;;;2.17;1.63;;;;;;;18.95;100.00;95704.25;1015543;29;20044;-72
2023/08/25 02:11:00;;;;;;;3.45;1.40;;;;;;;18.99;100.00;95705.97;1022374;29;20027;-73
2023/08/25 02:11:31;;;;;;;5.05;1.60;;;;;;;18.96;100.00;95701.28;1022554;28;20612;-75
2023/08/25 02:12:01;;;;;;;2.15;1.10;;;;;;;19.00;100.00;95710.19;1026535;28;20046;-73
2023/08/25 02:12:33;;;;;;;4.20;1.30;;;;;;;18.99;100.00;95707.84;1022392;29;20424;-73
2023/08/25 02:13:04;;;;;;;1.85;1.55;;;;;;;18.99;100.00;95707.84;1018695;29;20032;-73
2023/08/25 02:13:34;;;;;;;2.97;1.50;;;;;;;18.96;100.00;95711.91;1021997;29;20468;-73
2023/08/25 02:14:05;;;;;;;2.50;1.40;;;;;;;18.99;100.00;95705.19;1022720;28;20031;-74
2023/08/25 02:14:35;;;;;;;3.80;1.58;;;;;;;18.98;100.00;95709.72;1022773;28;20086;-73
2023/08/25 02:15:06;;;;;;;1.60;1.50;;;;;;;18.99;100.00;95716.59;1018755;29;20111;-73
2023/08/25 02:15:36;;;;;;;4.53;1.73;;;;;;;18.96;100.00;95714.56;1014461;29;20039;-72
2023/08/25 02:16:07;;;;;;;6.47;2.15;;;;;;;18.95;100.00;95715.69;1014661;29;20645;-75
2023/08/25 02:16:37;;;;;;;5.10;1.88;;;;;;;18.86;100.00;95706.94;1018637;29;20031;-74
2023/08/25 02:17:08;;;;;;;2.42;1.70;;;;;;;18.92;100.00;95713.66;1018583;29;20028;-73
2023/08/25 02:17:40;;;;;;;1.70;1.38;;;;;;;18.89;100.00;95711.63;1018381;29;20044;-72
2023/08/25 02:18:10;;;;;;;1.80;1.65;;;;;;;18.87;100.00;95705.81;1026548;28;20021;-73
2023/08/25 02:18:41;;;;;;;1.98;1.60;;;;;;;18.84;100.00;95703.78;1022663;29;20035;-73
2023/08/25 02:19:11;;;;;;;3.50;1.60;;;;;;;18.84;100.00;95712.53;1022482;29;20763;-73
2023/08/25 02:19:41;;;;;;;3.50;1.67;;;;;;;18.84;100.00;95704.56;1022249;29;20023;-74
2023/08/25 02:20:12;;;;;;;2.28;1.67;;;;;;;18.83;100.00;95716.31;1026552;28;20097;-73
2023/08/25 02:20:43;;;;;;;3.42;1.42;;;;;;;18.83;100.00;95712.88;1022388;28;20036;-75
2023/08/25 02:21:13;;;;;;;2.28;1.45;;;;;;;18.77;100.00;95709.59;1022569;29;20023;-73
2023/08/25 02:21:45;;;;;;;3.70;1.52;;;;;;;18.74;100.00;95720.06;1018557;29;20102;-72
2023/08/25 02:22:51;;;;;;;2.25;1.60;;;;;;;18.78;100.00;95713.06;1028582;28;20054;-76
2023/08/25 02:23:22;;;;;;;2.17;1.40;;;;;;;18.76;100.00;95723.22;1026126;28;20035;-76
2023/08/25 02:23:54;;;;;;;2.08;1.50;;;;;;;18.77;100.00;95725.53;1028145;28;20022;-76
2023/08/25 02:24:24;;;;;;;2.33;1.67;;;;;;;18.78;100.00;95736.97;1019155;29;20059;-75
2023/08/25 02:24:55;;;;;;;3.63;2.03;;;;;;;18.77;100.00;95736.19;1019139;29;20056;-76
2023/08/25 02:25:25;;;;;;;2.30;1.50;;;;;;;18.68;100.00;95718.63;1022700;29;20019;-76
2023/08/25 02:25:56;;;;;;;6.25;2.10;;;;;;;18.78;100.00;95729.00;1018919;28;20043;-76
2023/08/25 02:26:26;;;;;;;3.22;1.85;;;;;;;18.80;100.00;95732.13;1026758;28;20031;-76
2023/08/25 02:26:56;;;;;;;3.97;1.73;;;;;;;18.77;100.00;95730.84;1031105;28;20026;-76
2023/08/25 02:27:27;;;;;;;3.00;2.47;;;;;;;18.75;100.00;95735.72;1023264;28;20086;-77
2023/08/25 02:27:57;;;;;;;3.83;1.98;;;;;;;18.66;100.00;95720.84;1023309;28;20027;-73
2023/08/25 02:28:28;;;;;;;4.53;1.83;;;;;;;18.73;100.00;95732.59;1027091;28;20019;-73